sensor_id;sensor_type;location;lat;lon;timestamp;P1;durP1;ratioP1;P2;durP2;ratioP2
10389;SDS011;5241;47.830;12.972;2024-03-22T00:00:16;8.40;;;5.60;;
10389;SDS011;5241;47.830;12.972;2024-03-22T00:02:42;5.53;;;4.60;;
10389;SDS011;5241;47.830;12.972;2024-03-22T00:05:08;8.33;;;4.70;;
10389;SDS011;5241;47.830;12.972;2024-03-22T00:07:33;5.63;;;3.87;;
10389;SDS011;5241;47.830;12.972;2024-03-22T00:09:59;7.10;;;5.30;;
10389;SDS011;5241;47.830;12.972;2024-03-22T00:12:25;6.10;;;4.57;;
10389;SDS011;5241;47.830;12.972;2024-03-22T00:14:50;7.43;;;5.10;;
10389;SDS011;5241;47.830;12.972;2024-03-22T00:17:19;8.13;;;5.20;;
10389;SDS011;5241;47.830;12.972;2024-03-22T00:19:45;7.00;;;4.63;;
10389;SDS011;5241;47.830;12.972;2024-03-22T00:22:10;6.70;;;5.07;;
10389;SDS011;5241;47.830;12.972;2024-03-22T00:24:36;7.33;;;4.90;;
10389;SDS011;5241;47.830;12.972;2024-03-22T00:27:01;9.03;;;4.83;;
10389;SDS011;5241;47.830;12.972;2024-03-22T00:29:27;7.27;;;4.70;;
10389;SDS011;5241;47.830;12.972;2024-03-22T00:31:53;5.53;;;4.30;;
10389;SDS011;5241;47.830;12.972;2024-03-22T00:34:18;7.97;;;5.10;;
10389;SDS011;5241;47.830;12.972;2024-03-22T00:36:44;8.67;;;5.37;;
10389;SDS011;5241;47.830;12.972;2024-03-22T00:39:10;8.57;;;5.43;;
10389;SDS011;5241;47.830;12.972;2024-03-22T00:41:36;8.97;;;5.70;;
10389;SDS011;5241;47.830;12.972;2024-03-22T00:44:01;8.30;;;5.63;;
10389;SDS011;5241;47.830;12.972;2024-03-22T00:46:27;9.77;;;6.33;;
10389;SDS011;5241;47.830;12.972;2024-03-22T00:48:52;10.23;;;5.90;;
10389;SDS011;5241;47.830;12.972;2024-03-22T00:51:18;8.60;;;5.23;;
10389;SDS011;5241;47.830;12.972;2024-03-22T00:53:43;7.30;;;5.53;;
10389;SDS011;5241;47.830;12.972;2024-03-22T00:56:09;9.80;;;5.87;;
10389;SDS011;5241;47.830;12.972;2024-03-22T00:58:35;8.90;;;5.53;;
10389;SDS011;5241;47.830;12.972;2024-03-22T01:01:00;8.50;;;5.63;;
10389;SDS011;5241;47.830;12.972;2024-03-22T01:03:26;7.00;;;5.63;;
10389;SDS011;5241;47.830;12.972;2024-03-22T01:05:51;10.23;;;6.20;;
10389;SDS011;5241;47.830;12.972;2024-03-22T01:08:17;8.80;;;6.37;;
10389;SDS011;5241;47.830;12.972;2024-03-22T01:10:42;9.57;;;5.20;;
10389;SDS011;5241;47.830;12.972;2024-03-22T01:13:08;7.27;;;5.47;;
10389;SDS011;5241;47.830;12.972;2024-03-22T01:15:33;8.97;;;5.67;;
10389;SDS011;5241;47.830;12.972;2024-03-22T01:17:59;9.47;;;6.10;;
10389;SDS011;5241;47.830;12.972;2024-03-22T01:20:25;9.53;;;5.77;;
10389;SDS011;5241;47.830;12.972;2024-03-22T01:22:50;7.23;;;4.77;;
10389;SDS011;5241;47.830;12.972;2024-03-22T01:25:16;7.97;;;4.97;;
10389;SDS011;5241;47.830;12.972;2024-03-22T01:27:41;8.63;;;6.03;;
10389;SDS011;5241;47.830;12.972;2024-03-22T01:30:07;9.83;;;5.77;;
10389;SDS011;5241;47.830;12.972;2024-03-22T01:32:34;10.53;;;6.30;;
10389;SDS011;5241;47.830;12.972;2024-03-22T01:35:00;8.77;;;5.67;;
10389;SDS011;5241;47.830;12.972;2024-03-22T01:37:25;10.37;;;6.87;;
10389;SDS011;5241;47.830;12.972;2024-03-22T01:39:51;9.63;;;6.43;;
10389;SDS011;5241;47.830;12.972;2024-03-22T01:42:16;10.80;;;6.30;;
10389;SDS011;5241;47.830;12.972;2024-03-22T01:44:42;10.63;;;6.47;;
10389;SDS011;5241;47.830;12.972;2024-03-22T01:47:08;9.93;;;6.30;;
10389;SDS011;5241;47.830;12.972;2024-03-22T01:49:33;10.60;;;6.17;;
10389;SDS011;5241;47.830;12.972;2024-03-22T01:51:59;9.37;;;6.17;;
10389;SDS011;5241;47.830;12.972;2024-03-22T01:54:25;8.97;;;6.37;;
10389;SDS011;5241;47.830;12.972;2024-03-22T01:56:50;10.50;;;5.43;;
10389;SDS011;5241;47.830;12.972;2024-03-22T01:59:16;7.57;;;5.53;;
10389;SDS011;5241;47.830;12.972;2024-03-22T02:01:43;9.43;;;5.57;;
10389;SDS011;5241;47.830;12.972;2024-03-22T02:04:08;8.10;;;5.93;;
10389;SDS011;5241;47.830;12.972;2024-03-22T02:06:34;9.97;;;5.80;;
10389;SDS011;5241;47.830;12.972;2024-03-22T02:09:00;11.20;;;5.87;;
10389;SDS011;5241;47.830;12.972;2024-03-22T02:11:26;11.20;;;6.77;;
10389;SDS011;5241;47.830;12.972;2024-03-22T02:13:52;8.30;;;5.40;;
10389;SDS011;5241;47.830;12.972;2024-03-22T02:16:17;9.07;;;5.67;;
10389;SDS011;5241;47.830;12.972;2024-03-22T02:18:43;8.47;;;5.60;;
10389;SDS011;5241;47.830;12.972;2024-03-22T02:21:12;8.63;;;5.37;;
10389;SDS011;5241;47.830;12.972;2024-03-22T02:23:38;7.97;;;5.60;;
10389;SDS011;5241;47.830;12.972;2024-03-22T02:26:05;9.80;;;6.50;;
10389;SDS011;5241;47.830;12.972;2024-03-22T02:28:32;10.83;;;5.90;;
10389;SDS011;5241;47.830;12.972;2024-03-22T02:30:59;10.23;;;5.97;;
10389;SDS011;5241;47.830;12.972;2024-03-22T02:33:25;10.93;;;6.23;;
10389;SDS011;5241;47.830;12.972;2024-03-22T02:35:51;9.50;;;5.93;;
10389;SDS011;5241;47.830;12.972;2024-03-22T02:38:17;11.27;;;6.70;;
10389;SDS011;5241;47.830;12.972;2024-03-22T02:40:43;14.73;;;7.20;;
10389;SDS011;5241;47.830;12.972;2024-03-22T02:43:09;8.83;;;6.07;;
10389;SDS011;5241;47.830;12.972;2024-03-22T02:45:35;13.47;;;6.57;;
10389;SDS011;5241;47.830;12.972;2024-03-22T02:48:01;10.03;;;6.77;;
10389;SDS011;5241;47.830;12.972;2024-03-22T02:50:27;9.97;;;6.13;;
10389;SDS011;5241;47.830;12.972;2024-03-22T02:52:52;9.03;;;6.37;;
10389;SDS011;5241;47.830;12.972;2024-03-22T02:55:18;9.47;;;6.67;;
10389;SDS011;5241;47.830;12.972;2024-03-22T02:57:43;10.77;;;6.47;;
10389;SDS011;5241;47.830;12.972;2024-03-22T03:00:09;10.40;;;6.73;;
10389;SDS011;5241;47.830;12.972;2024-03-22T03:02:35;11.70;;;6.70;;
10389;SDS011;5241;47.830;12.972;2024-03-22T03:05:01;11.90;;;7.43;;
10389;SDS011;5241;47.830;12.972;2024-03-22T03:07:27;8.43;;;6.27;;
10389;SDS011;5241;47.830;12.972;2024-03-22T03:09:52;9.77;;;6.47;;
10389;SDS011;5241;47.830;12.972;2024-03-22T03:12:18;9.63;;;6.07;;
10389;SDS011;5241;47.830;12.972;2024-03-22T03:14:44;11.07;;;6.13;;
10389;SDS011;5241;47.830;12.972;2024-03-22T03:17:09;11.10;;;6.47;;
10389;SDS011;5241;47.830;12.972;2024-03-22T03:19:35;8.77;;;5.77;;
10389;SDS011;5241;47.830;12.972;2024-03-22T03:22:01;11.57;;;6.23;;
10389;SDS011;5241;47.830;12.972;2024-03-22T03:24:27;7.67;;;5.93;;
10389;SDS011;5241;47.830;12.972;2024-03-22T03:26:52;8.73;;;5.83;;
10389;SDS011;5241;47.830;12.972;2024-03-22T03:29:18;9.17;;;6.03;;
10389;SDS011;5241;47.830;12.972;2024-03-22T03:31:44;11.73;;;6.60;;
10389;SDS011;5241;47.830;12.972;2024-03-22T03:34:10;8.83;;;5.43;;
10389;SDS011;5241;47.830;12.972;2024-03-22T03:36:35;9.63;;;6.10;;
10389;SDS011;5241;47.830;12.972;2024-03-22T03:39:01;8.87;;;6.00;;
10389;SDS011;5241;47.830;12.972;2024-03-22T03:41:27;12.67;;;6.80;;
10389;SDS011;5241;47.830;12.972;2024-03-22T03:43:52;10.30;;;5.60;;
10389;SDS011;5241;47.830;12.972;2024-03-22T03:46:18;11.77;;;6.47;;
10389;SDS011;5241;47.830;12.972;2024-03-22T03:48:43;10.70;;;6.43;;
10389;SDS011;5241;47.830;12.972;2024-03-22T03:51:09;11.30;;;6.53;;
10389;SDS011;5241;47.830;12.972;2024-03-22T03:53:34;12.67;;;7.13;;
10389;SDS011;5241;47.830;12.972;2024-03-22T03:56:00;9.87;;;6.30;;
10389;SDS011;5241;47.830;12.972;2024-03-22T03:58:25;9.33;;;6.07;;
10389;SDS011;5241;47.830;12.972;2024-03-22T04:00:51;9.87;;;6.70;;
10389;SDS011;5241;47.830;12.972;2024-03-22T04:03:16;10.17;;;6.90;;
10389;SDS011;5241;47.830;12.972;2024-03-22T04:05:42;9.27;;;5.97;;
10389;SDS011;5241;47.830;12.972;2024-03-22T04:08:07;9.23;;;6.10;;
10389;SDS011;5241;47.830;12.972;2024-03-22T04:10:33;11.20;;;6.73;;
10389;SDS011;5241;47.830;12.972;2024-03-22T04:12:58;10.30;;;6.77;;
10389;SDS011;5241;47.830;12.972;2024-03-22T04:15:24;10.10;;;6.30;;
10389;SDS011;5241;47.830;12.972;2024-03-22T04:17:49;9.03;;;5.83;;
10389;SDS011;5241;47.830;12.972;2024-03-22T04:20:15;8.57;;;5.80;;
10389;SDS011;5241;47.830;12.972;2024-03-22T04:22:40;9.93;;;6.57;;
10389;SDS011;5241;47.830;12.972;2024-03-22T04:25:06;9.67;;;6.47;;
10389;SDS011;5241;47.830;12.972;2024-03-22T04:27:35;8.30;;;5.50;;
10389;SDS011;5241;47.830;12.972;2024-03-22T04:30:01;8.13;;;5.83;;
10389;SDS011;5241;47.830;12.972;2024-03-22T04:32:27;10.17;;;6.10;;
10389;SDS011;5241;47.830;12.972;2024-03-22T04:34:52;9.80;;;6.20;;
10389;SDS011;5241;47.830;12.972;2024-03-22T04:37:19;10.63;;;6.43;;
10389;SDS011;5241;47.830;12.972;2024-03-22T04:39:45;9.27;;;6.17;;
10389;SDS011;5241;47.830;12.972;2024-03-22T04:42:11;9.33;;;6.37;;
10389;SDS011;5241;47.830;12.972;2024-03-22T04:44:37;10.47;;;6.70;;
10389;SDS011;5241;47.830;12.972;2024-03-22T04:47:02;18.67;;;6.07;;
10389;SDS011;5241;47.830;12.972;2024-03-22T04:49:28;8.37;;;5.53;;
10389;SDS011;5241;47.830;12.972;2024-03-22T04:51:53;10.30;;;6.47;;
10389;SDS011;5241;47.830;12.972;2024-03-22T04:54:19;9.93;;;5.87;;
10389;SDS011;5241;47.830;12.972;2024-03-22T04:56:44;8.27;;;6.03;;
10389;SDS011;5241;47.830;12.972;2024-03-22T04:59:10;10.63;;;6.30;;
10389;SDS011;5241;47.830;12.972;2024-03-22T05:01:35;9.47;;;5.97;;
10389;SDS011;5241;47.830;12.972;2024-03-22T05:04:01;7.90;;;5.77;;
10389;SDS011;5241;47.830;12.972;2024-03-22T05:06:26;10.23;;;5.90;;
10389;SDS011;5241;47.830;12.972;2024-03-22T05:08:52;13.00;;;6.67;;
10389;SDS011;5241;47.830;12.972;2024-03-22T05:11:17;10.77;;;5.73;;
10389;SDS011;5241;47.830;12.972;2024-03-22T05:13:43;10.03;;;5.43;;
10389;SDS011;5241;47.830;12.972;2024-03-22T05:16:08;13.60;;;6.83;;
10389;SDS011;5241;47.830;12.972;2024-03-22T05:18:36;11.13;;;6.67;;
10389;SDS011;5241;47.830;12.972;2024-03-22T05:21:01;9.30;;;5.97;;
10389;SDS011;5241;47.830;12.972;2024-03-22T05:23:28;8.07;;;5.83;;
10389;SDS011;5241;47.830;12.972;2024-03-22T05:25:53;12.90;;;7.10;;
10389;SDS011;5241;47.830;12.972;2024-03-22T05:28:19;11.87;;;6.80;;
10389;SDS011;5241;47.830;12.972;2024-03-22T05:30:44;10.87;;;7.27;;
10389;SDS011;5241;47.830;12.972;2024-03-22T05:33:10;10.47;;;6.37;;
10389;SDS011;5241;47.830;12.972;2024-03-22T05:35:36;12.17;;;7.67;;
10389;SDS011;5241;47.830;12.972;2024-03-22T05:38:02;10.73;;;7.33;;
10389;SDS011;5241;47.830;12.972;2024-03-22T05:40:28;10.17;;;7.00;;
10389;SDS011;5241;47.830;12.972;2024-03-22T05:42:53;10.73;;;6.67;;
10389;SDS011;5241;47.830;12.972;2024-03-22T05:45:19;12.33;;;7.33;;
10389;SDS011;5241;47.830;12.972;2024-03-22T05:47:45;10.80;;;6.70;;
10389;SDS011;5241;47.830;12.972;2024-03-22T05:50:11;11.17;;;7.20;;
10389;SDS011;5241;47.830;12.972;2024-03-22T05:52:39;10.23;;;6.77;;
10389;SDS011;5241;47.830;12.972;2024-03-22T05:55:05;9.57;;;6.67;;
10389;SDS011;5241;47.830;12.972;2024-03-22T05:57:30;9.57;;;6.37;;
10389;SDS011;5241;47.830;12.972;2024-03-22T05:59:56;9.53;;;6.57;;
10389;SDS011;5241;47.830;12.972;2024-03-22T06:02:22;10.73;;;6.07;;
10389;SDS011;5241;47.830;12.972;2024-03-22T06:04:48;9.20;;;6.37;;
10389;SDS011;5241;47.830;12.972;2024-03-22T06:07:13;8.70;;;5.77;;
10389;SDS011;5241;47.830;12.972;2024-03-22T06:09:41;9.17;;;6.27;;
10389;SDS011;5241;47.830;12.972;2024-03-22T06:12:13;10.90;;;7.23;;
10389;SDS011;5241;47.830;12.972;2024-03-22T06:14:43;12.63;;;7.57;;
10389;SDS011;5241;47.830;12.972;2024-03-22T06:17:09;12.13;;;7.30;;
10389;SDS011;5241;47.830;12.972;2024-03-22T06:19:35;12.77;;;7.53;;
10389;SDS011;5241;47.830;12.972;2024-03-22T06:22:01;12.03;;;7.37;;
10389;SDS011;5241;47.830;12.972;2024-03-22T06:24:27;11.87;;;6.90;;
10389;SDS011;5241;47.830;12.972;2024-03-22T06:26:53;12.80;;;6.97;;
10389;SDS011;5241;47.830;12.972;2024-03-22T06:29:19;9.07;;;6.30;;
10389;SDS011;5241;47.830;12.972;2024-03-22T06:31:44;9.47;;;6.17;;
10389;SDS011;5241;47.830;12.972;2024-03-22T06:34:10;9.73;;;7.53;;
10389;SDS011;5241;47.830;12.972;2024-03-22T06:36:35;13.57;;;7.00;;
10389;SDS011;5241;47.830;12.972;2024-03-22T06:39:01;9.40;;;6.20;;
10389;SDS011;5241;47.830;12.972;2024-03-22T06:41:29;8.73;;;6.03;;
10389;SDS011;5241;47.830;12.972;2024-03-22T06:43:55;11.07;;;6.73;;
10389;SDS011;5241;47.830;12.972;2024-03-22T06:46:20;12.63;;;6.30;;
10389;SDS011;5241;47.830;12.972;2024-03-22T06:48:46;10.67;;;6.97;;
10389;SDS011;5241;47.830;12.972;2024-03-22T06:51:11;9.50;;;6.47;;
10389;SDS011;5241;47.830;12.972;2024-03-22T06:53:37;9.27;;;6.40;;
10389;SDS011;5241;47.830;12.972;2024-03-22T06:56:03;9.60;;;6.13;;
10389;SDS011;5241;47.830;12.972;2024-03-22T06:58:29;9.93;;;5.93;;
10389;SDS011;5241;47.830;12.972;2024-03-22T07:00:54;9.77;;;6.27;;
10389;SDS011;5241;47.830;12.972;2024-03-22T07:03:20;7.17;;;5.63;;
10389;SDS011;5241;47.830;12.972;2024-03-22T07:05:46;8.43;;;5.73;;
10389;SDS011;5241;47.830;12.972;2024-03-22T07:08:12;8.80;;;5.93;;
10389;SDS011;5241;47.830;12.972;2024-03-22T07:10:38;9.23;;;6.30;;
10389;SDS011;5241;47.830;12.972;2024-03-22T07:13:04;9.13;;;5.70;;
10389;SDS011;5241;47.830;12.972;2024-03-22T07:15:30;9.73;;;7.00;;
10389;SDS011;5241;47.830;12.972;2024-03-22T07:17:57;10.03;;;6.73;;
10389;SDS011;5241;47.830;12.972;2024-03-22T07:20:23;7.37;;;5.90;;
10389;SDS011;5241;47.830;12.972;2024-03-22T07:22:49;10.00;;;6.53;;
10389;SDS011;5241;47.830;12.972;2024-03-22T07:25:15;8.13;;;5.63;;
10389;SDS011;5241;47.830;12.972;2024-03-22T07:27:40;7.77;;;5.47;;
10389;SDS011;5241;47.830;12.972;2024-03-22T07:30:06;8.77;;;5.63;;
10389;SDS011;5241;47.830;12.972;2024-03-22T07:32:32;8.70;;;5.40;;
10389;SDS011;5241;47.830;12.972;2024-03-22T07:34:58;9.00;;;6.53;;
10389;SDS011;5241;47.830;12.972;2024-03-22T07:37:23;7.90;;;6.03;;
10389;SDS011;5241;47.830;12.972;2024-03-22T07:39:49;8.77;;;5.93;;
10389;SDS011;5241;47.830;12.972;2024-03-22T07:42:14;9.90;;;5.53;;
10389;SDS011;5241;47.830;12.972;2024-03-22T07:44:40;7.17;;;5.03;;
10389;SDS011;5241;47.830;12.972;2024-03-22T07:47:05;7.20;;;5.40;;
10389;SDS011;5241;47.830;12.972;2024-03-22T07:49:31;6.37;;;4.93;;
10389;SDS011;5241;47.830;12.972;2024-03-22T07:51:58;7.77;;;5.57;;
10389;SDS011;5241;47.830;12.972;2024-03-22T07:54:24;8.63;;;5.13;;
10389;SDS011;5241;47.830;12.972;2024-03-22T07:56:50;8.13;;;5.40;;
10389;SDS011;5241;47.830;12.972;2024-03-22T07:59:15;6.53;;;4.47;;
10389;SDS011;5241;47.830;12.972;2024-03-22T08:01:41;7.13;;;4.87;;
10389;SDS011;5241;47.830;12.972;2024-03-22T08:04:06;5.37;;;4.10;;
10389;SDS011;5241;47.830;12.972;2024-03-22T08:06:32;5.93;;;3.83;;
10389;SDS011;5241;47.830;12.972;2024-03-22T08:08:58;4.93;;;3.63;;
10389;SDS011;5241;47.830;12.972;2024-03-22T08:11:23;4.30;;;3.57;;
10389;SDS011;5241;47.830;12.972;2024-03-22T08:13:49;5.57;;;3.70;;
10389;SDS011;5241;47.830;12.972;2024-03-22T08:16:14;4.50;;;3.73;;
10389;SDS011;5241;47.830;12.972;2024-03-22T08:18:40;5.77;;;3.90;;
10389;SDS011;5241;47.830;12.972;2024-03-22T08:21:05;5.63;;;3.47;;
10389;SDS011;5241;47.830;12.972;2024-03-22T08:23:31;6.83;;;3.63;;
10389;SDS011;5241;47.830;12.972;2024-03-22T08:25:57;3.63;;;2.90;;
10389;SDS011;5241;47.830;12.972;2024-03-22T08:28:22;4.17;;;3.20;;
10389;SDS011;5241;47.830;12.972;2024-03-22T08:30:48;4.17;;;3.07;;
10389;SDS011;5241;47.830;12.972;2024-03-22T08:33:14;5.03;;;3.50;;
10389;SDS011;5241;47.830;12.972;2024-03-22T08:35:39;3.30;;;2.83;;
10389;SDS011;5241;47.830;12.972;2024-03-22T08:38:05;4.20;;;3.27;;
10389;SDS011;5241;47.830;12.972;2024-03-22T08:40:36;4.47;;;3.50;;
10389;SDS011;5241;47.830;12.972;2024-03-22T08:43:02;4.93;;;3.40;;
10389;SDS011;5241;47.830;12.972;2024-03-22T08:45:28;5.27;;;3.40;;
10389;SDS011;5241;47.830;12.972;2024-03-22T08:47:54;4.27;;;3.27;;
10389;SDS011;5241;47.830;12.972;2024-03-22T08:50:19;5.07;;;3.43;;
10389;SDS011;5241;47.830;12.972;2024-03-22T08:52:45;3.93;;;2.67;;
10389;SDS011;5241;47.830;12.972;2024-03-22T08:55:11;3.50;;;3.20;;
10389;SDS011;5241;47.830;12.972;2024-03-22T08:57:36;3.47;;;3.17;;
10389;SDS011;5241;47.830;12.972;2024-03-22T09:00:02;4.60;;;3.17;;
10389;SDS011;5241;47.830;12.972;2024-03-22T09:02:28;4.43;;;3.50;;
10389;SDS011;5241;47.830;12.972;2024-03-22T09:04:53;3.40;;;2.80;;
10389;SDS011;5241;47.830;12.972;2024-03-22T09:07:19;4.60;;;3.20;;
10389;SDS011;5241;47.830;12.972;2024-03-22T09:09:45;4.00;;;2.73;;
10389;SDS011;5241;47.830;12.972;2024-03-22T09:12:10;3.67;;;2.83;;
10389;SDS011;5241;47.830;12.972;2024-03-22T09:14:36;4.40;;;2.63;;
10389;SDS011;5241;47.830;12.972;2024-03-22T09:17:01;4.93;;;3.07;;
10389;SDS011;5241;47.830;12.972;2024-03-22T09:19:27;4.23;;;2.73;;
10389;SDS011;5241;47.830;12.972;2024-03-22T09:21:53;4.40;;;2.70;;
10389;SDS011;5241;47.830;12.972;2024-03-22T09:24:18;4.20;;;2.77;;
10389;SDS011;5241;47.830;12.972;2024-03-22T09:26:45;3.60;;;2.90;;
10389;SDS011;5241;47.830;12.972;2024-03-22T09:29:10;3.50;;;2.60;;
10389;SDS011;5241;47.830;12.972;2024-03-22T09:31:38;3.43;;;2.80;;
10389;SDS011;5241;47.830;12.972;2024-03-22T09:34:03;5.30;;;2.97;;
10389;SDS011;5241;47.830;12.972;2024-03-22T09:36:29;2.83;;;2.50;;
10389;SDS011;5241;47.830;12.972;2024-03-22T09:38:59;4.03;;;2.57;;
10389;SDS011;5241;47.830;12.972;2024-03-22T09:41:25;4.63;;;3.00;;
10389;SDS011;5241;47.830;12.972;2024-03-22T09:43:53;2.70;;;2.27;;
10389;SDS011;5241;47.830;12.972;2024-03-22T09:46:22;4.07;;;3.10;;
10389;SDS011;5241;47.830;12.972;2024-03-22T09:48:48;4.80;;;2.47;;
10389;SDS011;5241;47.830;12.972;2024-03-22T09:51:15;2.97;;;2.67;;
10389;SDS011;5241;47.830;12.972;2024-03-22T09:53:43;4.13;;;2.83;;
10389;SDS011;5241;47.830;12.972;2024-03-22T09:56:10;3.27;;;2.53;;
10389;SDS011;5241;47.830;12.972;2024-03-22T09:58:40;2.63;;;2.40;;
10389;SDS011;5241;47.830;12.972;2024-03-22T10:01:09;3.47;;;2.17;;
10389;SDS011;5241;47.830;12.972;2024-03-22T10:03:36;2.43;;;2.10;;
10389;SDS011;5241;47.830;12.972;2024-03-22T10:06:01;2.87;;;2.57;;
10389;SDS011;5241;47.830;12.972;2024-03-22T10:08:27;3.17;;;2.27;;
10389;SDS011;5241;47.830;12.972;2024-03-22T10:10:53;4.77;;;3.50;;
10389;SDS011;5241;47.830;12.972;2024-03-22T10:13:18;4.73;;;3.27;;
10389;SDS011;5241;47.830;12.972;2024-03-22T10:15:44;3.10;;;2.43;;
10389;SDS011;5241;47.830;12.972;2024-03-22T10:18:10;9.23;;;3.77;;
10389;SDS011;5241;47.830;12.972;2024-03-22T10:20:36;5.43;;;3.63;;
10389;SDS011;5241;47.830;12.972;2024-03-22T10:23:02;3.80;;;2.43;;
10389;SDS011;5241;47.830;12.972;2024-03-22T10:25:28;2.80;;;2.40;;
10389;SDS011;5241;47.830;12.972;2024-03-22T10:27:54;2.43;;;1.87;;
10389;SDS011;5241;47.830;12.972;2024-03-22T10:30:20;2.83;;;2.20;;
10389;SDS011;5241;47.830;12.972;2024-03-22T10:32:47;2.50;;;2.20;;
10389;SDS011;5241;47.830;12.972;2024-03-22T10:35:14;2.60;;;2.40;;
10389;SDS011;5241;47.830;12.972;2024-03-22T10:37:40;2.97;;;2.30;;
10389;SDS011;5241;47.830;12.972;2024-03-22T10:40:06;2.00;;;1.80;;
10389;SDS011;5241;47.830;12.972;2024-03-22T10:42:33;2.57;;;2.10;;
10389;SDS011;5241;47.830;12.972;2024-03-22T10:44:59;2.43;;;2.03;;
10389;SDS011;5241;47.830;12.972;2024-03-22T10:47:25;3.30;;;2.10;;
10389;SDS011;5241;47.830;12.972;2024-03-22T10:49:55;2.20;;;2.00;;
10389;SDS011;5241;47.830;12.972;2024-03-22T10:52:29;1.90;;;1.80;;
10389;SDS011;5241;47.830;12.972;2024-03-22T10:54:56;2.30;;;2.10;;
10389;SDS011;5241;47.830;12.972;2024-03-22T10:57:23;2.17;;;1.80;;
10389;SDS011;5241;47.830;12.972;2024-03-22T10:59:49;2.53;;;1.97;;
10389;SDS011;5241;47.830;12.972;2024-03-22T11:02:19;2.67;;;2.00;;
10389;SDS011;5241;47.830;12.972;2024-03-22T11:04:58;2.53;;;1.90;;
10389;SDS011;5241;47.830;12.972;2024-03-22T11:07:28;2.43;;;1.97;;
10389;SDS011;5241;47.830;12.972;2024-03-22T11:09:57;2.27;;;1.70;;
10389;SDS011;5241;47.830;12.972;2024-03-22T11:12:27;2.80;;;2.50;;
10389;SDS011;5241;47.830;12.972;2024-03-22T11:14:53;2.37;;;2.17;;
10389;SDS011;5241;47.830;12.972;2024-03-22T11:17:20;1.93;;;1.83;;
10389;SDS011;5241;47.830;12.972;2024-03-22T11:19:49;2.77;;;1.70;;
10389;SDS011;5241;47.830;12.972;2024-03-22T11:22:18;1.87;;;1.60;;
10389;SDS011;5241;47.830;12.972;2024-03-22T11:24:44;2.60;;;2.00;;
10389;SDS011;5241;47.830;12.972;2024-03-22T11:27:10;2.90;;;2.03;;
10389;SDS011;5241;47.830;12.972;2024-03-22T11:29:39;2.27;;;2.07;;
10389;SDS011;5241;47.830;12.972;2024-03-22T11:32:07;2.20;;;1.97;;
10389;SDS011;5241;47.830;12.972;2024-03-22T11:34:34;2.23;;;1.77;;
10389;SDS011;5241;47.830;12.972;2024-03-22T11:39:37;1.60;;;1.37;;
10389;SDS011;5241;47.830;12.972;2024-03-22T11:42:06;3.53;;;1.40;;
10389;SDS011;5241;47.830;12.972;2024-03-22T11:44:33;1.30;;;1.20;;
10389;SDS011;5241;47.830;12.972;2024-03-22T11:47:01;2.07;;;1.60;;
10389;SDS011;5241;47.830;12.972;2024-03-22T11:49:28;1.67;;;1.27;;
10389;SDS011;5241;47.830;12.972;2024-03-22T11:51:54;1.50;;;1.30;;
10389;SDS011;5241;47.830;12.972;2024-03-22T11:54:21;2.03;;;1.27;;
10389;SDS011;5241;47.830;12.972;2024-03-22T11:56:47;1.60;;;1.30;;
10389;SDS011;5241;47.830;12.972;2024-03-22T11:59:12;1.40;;;1.30;;
10389;SDS011;5241;47.830;12.972;2024-03-22T12:01:38;1.30;;;1.20;;
10389;SDS011;5241;47.830;12.972;2024-03-22T12:04:05;1.60;;;1.40;;
10389;SDS011;5241;47.830;12.972;2024-03-22T12:06:33;1.43;;;1.30;;
10389;SDS011;5241;47.830;12.972;2024-03-22T12:08:59;1.77;;;1.37;;
10389;SDS011;5241;47.830;12.972;2024-03-22T12:11:25;1.70;;;1.10;;
10389;SDS011;5241;47.830;12.972;2024-03-22T12:13:50;1.53;;;1.10;;
10389;SDS011;5241;47.830;12.972;2024-03-22T12:16:16;1.20;;;1.10;;
10389;SDS011;5241;47.830;12.972;2024-03-22T12:18:41;1.20;;;1.10;;
10389;SDS011;5241;47.830;12.972;2024-03-22T12:21:07;2.20;;;1.23;;
10389;SDS011;5241;47.830;12.972;2024-03-22T12:23:33;1.40;;;1.30;;
10389;SDS011;5241;47.830;12.972;2024-03-22T12:25:58;1.50;;;1.17;;
10389;SDS011;5241;47.830;12.972;2024-03-22T12:28:24;1.20;;;1.10;;
10389;SDS011;5241;47.830;12.972;2024-03-22T12:30:49;2.43;;;1.50;;
10389;SDS011;5241;47.830;12.972;2024-03-22T12:33:15;1.77;;;1.00;;
10389;SDS011;5241;47.830;12.972;2024-03-22T12:35:41;1.90;;;1.50;;
10389;SDS011;5241;47.830;12.972;2024-03-22T12:38:07;1.50;;;1.40;;
10389;SDS011;5241;47.830;12.972;2024-03-22T12:40:35;1.93;;;1.40;;
10389;SDS011;5241;47.830;12.972;2024-03-22T12:43:01;2.17;;;1.33;;
10389;SDS011;5241;47.830;12.972;2024-03-22T12:45:27;1.30;;;1.20;;
10389;SDS011;5241;47.830;12.972;2024-03-22T12:47:53;1.33;;;1.13;;
10389;SDS011;5241;47.830;12.972;2024-03-22T12:50:18;1.33;;;1.20;;
10389;SDS011;5241;47.830;12.972;2024-03-22T12:52:44;1.33;;;1.23;;
10389;SDS011;5241;47.830;12.972;2024-03-22T12:55:10;2.80;;;1.40;;
10389;SDS011;5241;47.830;12.972;2024-03-22T12:57:36;2.27;;;1.50;;
10389;SDS011;5241;47.830;12.972;2024-03-22T13:00:01;1.30;;;1.20;;
10389;SDS011;5241;47.830;12.972;2024-03-22T13:02:30;3.80;;;1.50;;
10389;SDS011;5241;47.830;12.972;2024-03-22T13:04:57;2.00;;;1.33;;
10389;SDS011;5241;47.830;12.972;2024-03-22T13:07:23;1.47;;;1.30;;
10389;SDS011;5241;47.830;12.972;2024-03-22T13:09:48;2.17;;;1.30;;
10389;SDS011;5241;47.830;12.972;2024-03-22T13:12:15;1.37;;;1.27;;
10389;SDS011;5241;47.830;12.972;2024-03-22T13:14:41;1.50;;;1.40;;
10389;SDS011;5241;47.830;12.972;2024-03-22T13:17:06;1.47;;;1.37;;
10389;SDS011;5241;47.830;12.972;2024-03-22T13:19:33;2.03;;;1.40;;
10389;SDS011;5241;47.830;12.972;2024-03-22T13:21:59;1.40;;;1.30;;
10389;SDS011;5241;47.830;12.972;2024-03-22T13:24:25;1.60;;;1.50;;
10389;SDS011;5241;47.830;12.972;2024-03-22T13:26:50;1.27;;;1.17;;
10389;SDS011;5241;47.830;12.972;2024-03-22T13:29:16;1.50;;;1.40;;
10389;SDS011;5241;47.830;12.972;2024-03-22T13:31:42;1.40;;;1.30;;
10389;SDS011;5241;47.830;12.972;2024-03-22T13:34:08;1.50;;;1.30;;
10389;SDS011;5241;47.830;12.972;2024-03-22T13:36:34;2.77;;;1.37;;
10389;SDS011;5241;47.830;12.972;2024-03-22T13:39:01;1.83;;;1.50;;
10389;SDS011;5241;47.830;12.972;2024-03-22T13:41:27;2.23;;;1.37;;
10389;SDS011;5241;47.830;12.972;2024-03-22T13:43:53;1.47;;;1.37;;
10389;SDS011;5241;47.830;12.972;2024-03-22T13:46:18;1.30;;;1.20;;
10389;SDS011;5241;47.830;12.972;2024-03-22T13:48:44;1.30;;;1.20;;
10389;SDS011;5241;47.830;12.972;2024-03-22T13:51:09;1.50;;;1.40;;
10389;SDS011;5241;47.830;12.972;2024-03-22T13:53:35;1.87;;;1.40;;
10389;SDS011;5241;47.830;12.972;2024-03-22T13:56:02;3.20;;;1.30;;
10389;SDS011;5241;47.830;12.972;2024-03-22T13:58:27;1.20;;;1.10;;
10389;SDS011;5241;47.830;12.972;2024-03-22T14:00:53;3.10;;;1.40;;
10389;SDS011;5241;47.830;12.972;2024-03-22T14:03:19;1.30;;;1.20;;
10389;SDS011;5241;47.830;12.972;2024-03-22T14:05:45;1.83;;;1.47;;
10389;SDS011;5241;47.830;12.972;2024-03-22T14:08:10;1.30;;;1.20;;
10389;SDS011;5241;47.830;12.972;2024-03-22T14:10:36;1.77;;;1.53;;
10389;SDS011;5241;47.830;12.972;2024-03-22T14:13:02;1.70;;;1.20;;
10389;SDS011;5241;47.830;12.972;2024-03-22T14:15:29;1.20;;;1.10;;
10389;SDS011;5241;47.830;12.972;2024-03-22T14:17:57;1.97;;;1.20;;
10389;SDS011;5241;47.830;12.972;2024-03-22T14:20:23;1.73;;;1.43;;
10389;SDS011;5241;47.830;12.972;2024-03-22T14:22:50;1.50;;;1.40;;
10389;SDS011;5241;47.830;12.972;2024-03-22T14:25:16;1.30;;;1.20;;
10389;SDS011;5241;47.830;12.972;2024-03-22T14:27:41;1.63;;;1.23;;
10389;SDS011;5241;47.830;12.972;2024-03-22T14:30:10;1.50;;;1.40;;
10389;SDS011;5241;47.830;12.972;2024-03-22T14:32:38;1.57;;;1.30;;
10389;SDS011;5241;47.830;12.972;2024-03-22T14:35:05;1.70;;;1.40;;
10389;SDS011;5241;47.830;12.972;2024-03-22T14:37:31;1.30;;;1.20;;
10389;SDS011;5241;47.830;12.972;2024-03-22T14:39:57;2.30;;;1.53;;